createdAt,value
2022-11-29T00:01:48.995Z,95.70
2022-11-29T00:04:16.334Z,95.70
2022-11-29T00:06:43.689Z,95.70
2022-11-29T00:09:12.363Z,95.70
2022-11-29T00:11:58.910Z,95.70
2022-11-29T00:14:27.217Z,95.60
2022-11-29T00:16:56.236Z,95.60
2022-11-29T00:19:23.681Z,95.70
2022-11-29T00:21:51.160Z,95.60
2022-11-29T00:24:18.520Z,95.60
2022-11-29T00:26:45.965Z,95.60
2022-11-29T00:29:13.734Z,95.60
2022-11-29T00:31:41.408Z,95.70
2022-11-29T00:34:10.378Z,95.70
2022-11-29T00:36:38.209Z,95.70
2022-11-29T00:39:05.893Z,95.70
2022-11-29T00:41:33.532Z,95.70
2022-11-29T00:44:00.906Z,95.70
2022-11-29T00:46:28.284Z,95.60
2022-11-29T00:48:55.645Z,95.60
2022-11-29T00:51:23.085Z,95.60
2022-11-29T00:53:50.638Z,95.60
2022-11-29T00:56:18.006Z,95.70
2022-11-29T00:58:45.341Z,95.70
2022-11-29T01:01:12.839Z,95.70
2022-11-29T01:03:40.479Z,95.70
2022-11-29T01:06:09.602Z,95.70
2022-11-29T01:08:37.295Z,95.70
2022-11-29T01:11:10.931Z,95.70
2022-11-29T01:13:38.910Z,95.60
2022-11-29T01:16:06.551Z,95.60
2022-11-29T01:18:34.410Z,95.60
2022-11-29T01:21:12.568Z,95.60
2022-11-29T01:23:40.460Z,95.70
2022-11-29T01:26:09.179Z,95.70
2022-11-29T01:28:37.645Z,95.70
2022-11-29T01:31:09.456Z,95.70
2022-11-29T01:33:37.407Z,95.70
2022-11-29T01:36:05.629Z,95.70
2022-11-29T01:38:33.238Z,95.70
2022-11-29T01:41:05.231Z,95.70
2022-11-29T01:43:33.288Z,95.70
2022-11-29T01:46:00.699Z,95.70
2022-11-29T01:48:29.899Z,95.70
2022-11-29T01:51:00.181Z,95.70
2022-11-29T01:53:28.415Z,95.70
2022-11-29T01:55:58.067Z,95.70
2022-11-29T01:58:25.553Z,95.70
2022-11-29T02:00:53.100Z,95.70
2022-11-29T02:03:20.466Z,95.70
2022-11-29T02:05:51.936Z,95.70
2022-11-29T02:08:29.418Z,95.70
2022-11-29T02:11:02.837Z,95.70
2022-11-29T02:13:30.289Z,95.70
2022-11-29T02:16:08.287Z,95.70
2022-11-29T02:18:44.903Z,95.70
2022-11-29T02:21:21.513Z,95.70
2022-11-29T02:24:07.993Z,95.70
2022-11-29T02:26:54.202Z,95.70
2022-11-29T02:29:29.719Z,95.70
2022-11-29T02:32:03.218Z,95.70
2022-11-29T02:34:43.213Z,95.70
2022-11-29T02:37:31.146Z,95.70
2022-11-29T02:40:01.629Z,95.70
2022-11-29T02:42:32.022Z,95.70
2022-11-29T02:44:59.396Z,95.80
2022-11-29T02:47:36.728Z,95.80
2022-11-29T02:50:23.036Z,95.80
2022-11-29T02:52:54.529Z,95.80
2022-11-29T02:55:29.486Z,95.80
2022-11-29T02:57:56.852Z,95.80
2022-11-29T03:00:25.071Z,95.80
2022-11-29T03:02:56.014Z,95.70
2022-11-29T03:05:34.327Z,95.70
2022-11-29T03:08:12.514Z,95.70
2022-11-29T03:10:58.830Z,95.70
2022-11-29T03:13:45.086Z,95.70
2022-11-29T03:16:12.621Z,95.70
2022-11-29T03:18:51.029Z,95.70
2022-11-29T03:21:31.186Z,95.70
2022-11-29T03:24:01.053Z,95.70
2022-11-29T03:26:41.801Z,95.80
2022-11-29T03:29:38.753Z,95.80
2022-11-29T03:32:26.573Z,95.80
2022-11-29T03:34:57.136Z,95.70
2022-11-29T03:37:34.374Z,95.70
2022-11-29T03:40:10.081Z,95.70
2022-11-29T03:42:43.600Z,95.80
2022-11-29T03:45:11.205Z,95.70
2022-11-29T03:47:42.737Z,95.80
2022-11-29T03:50:13.554Z,95.70
2022-11-29T03:52:53.460Z,95.80
2022-11-29T03:55:32.139Z,95.80
2022-11-29T03:58:13.225Z,95.80
2022-11-29T04:00:49.776Z,95.80
2022-11-29T04:03:23.406Z,95.80
2022-11-29T04:05:53.855Z,95.80
2022-11-29T04:08:41.721Z,95.70
2022-11-29T04:11:28.099Z,95.70
2022-11-29T04:14:14.418Z,95.70
2022-11-29T04:16:54.914Z,95.70
2022-11-29T04:19:34.250Z,95.70
2022-11-29T04:22:31.221Z,95.70
2022-11-29T04:25:10.837Z,95.70
2022-11-29T04:28:03.541Z,95.70
2022-11-29T04:30:38.855Z,95.60
2022-11-29T04:33:07.806Z,95.70
2022-11-29T04:35:53.936Z,95.70
2022-11-29T04:38:38.080Z,95.70
2022-11-29T04:41:24.261Z,95.60
2022-11-29T04:43:55.477Z,95.70
2022-11-29T04:46:41.778Z,95.70
2022-11-29T04:49:18.337Z,95.70
2022-11-29T04:51:45.706Z,95.70
2022-11-29T04:54:36.400Z,95.70
2022-11-29T04:57:17.802Z,95.70
2022-11-29T04:59:45.280Z,95.70
2022-11-29T05:02:12.691Z,95.70
2022-11-29T05:04:50.953Z,95.70
2022-11-29T05:07:32.914Z,95.70
2022-11-29T05:10:18.341Z,95.60
2022-11-29T05:12:54.835Z,95.60
2022-11-29T05:15:28.186Z,95.60
2022-11-29T05:18:04.755Z,95.60
2022-11-29T05:20:52.437Z,95.70
2022-11-29T05:23:19.775Z,95.60
2022-11-29T05:26:00.449Z,95.60
2022-11-29T05:28:35.805Z,95.60
2022-11-29T05:31:03.224Z,95.60
2022-11-29T05:33:39.702Z,95.60
2022-11-29T05:36:14.892Z,95.60
2022-11-29T05:38:42.419Z,95.60
2022-11-29T05:41:09.715Z,95.60
2022-11-29T05:43:52.348Z,95.60
2022-11-29T05:46:19.887Z,95.60
2022-11-29T05:48:58.670Z,95.60
2022-11-29T05:51:29.010Z,95.60
2022-11-29T05:54:13.086Z,95.60
2022-11-29T05:56:40.459Z,95.60
2022-11-29T05:59:17.148Z,95.60
2022-11-29T06:01:47.813Z,95.60
2022-11-29T06:04:34.358Z,95.60
2022-11-29T06:07:34.345Z,95.60
2022-11-29T06:10:17.930Z,95.60
2022-11-29T06:12:48.999Z,95.60
2022-11-29T06:15:19.722Z,95.60
2022-11-29T06:18:06.835Z,95.60
2022-11-29T06:20:43.407Z,95.60
2022-11-29T06:23:17.772Z,95.70
2022-11-29T06:25:53.443Z,95.70
2022-11-29T06:28:36.730Z,95.70
2022-11-29T06:31:04.225Z,95.70
2022-11-29T06:33:37.982Z,95.70
2022-11-29T06:36:11.715Z,95.70
2022-11-29T06:38:39.241Z,95.70
2022-11-29T06:41:06.827Z,95.70
2022-11-29T06:43:34.367Z,95.70
2022-11-29T06:46:20.685Z,95.70
2022-11-29T06:49:09.625Z,95.70
2022-11-29T06:51:49.604Z,95.70
2022-11-29T06:54:16.981Z,95.70
2022-11-29T06:56:52.090Z,95.70
2022-11-29T06:59:38.443Z,95.80
2022-11-29T07:02:24.862Z,95.80
2022-11-29T07:05:11.081Z,95.80
2022-11-29T07:07:38.750Z,95.80
2022-11-29T07:10:09.432Z,95.80
2022-11-29T07:12:41.102Z,95.70
2022-11-29T07:15:12.731Z,95.70
2022-11-29T07:17:46.523Z,95.70
2022-11-29T07:20:16.986Z,95.70
2022-11-29T07:23:23.485Z,95.70
2022-11-29T07:25:50.865Z,95.70
2022-11-29T07:28:36.710Z,95.70
2022-11-29T07:31:23.318Z,95.80
2022-11-29T07:33:50.849Z,95.70
2022-11-29T07:36:47.746Z,95.70
2022-11-29T07:39:33.545Z,95.70
2022-11-29T07:42:04.197Z,95.70
2022-11-29T07:44:50.380Z,95.70
2022-11-29T07:47:17.889Z,95.70
2022-11-29T07:49:45.417Z,95.70
2022-11-29T07:52:14.171Z,95.70
2022-11-29T07:54:41.919Z,95.70
2022-11-29T07:57:09.341Z,95.70
2022-11-29T07:59:36.860Z,95.70
2022-11-29T08:02:10.132Z,95.70
2022-11-29T08:04:44.523Z,95.70
2022-11-29T08:07:12.321Z,95.70
2022-11-29T08:09:39.741Z,95.60
2022-11-29T08:12:07.163Z,95.60
2022-11-29T08:14:34.598Z,95.70
2022-11-29T08:17:01.996Z,95.70
2022-11-29T08:19:29.650Z,95.70
2022-11-29T08:21:57.030Z,95.60
2022-11-29T08:24:24.414Z,95.50
2022-11-29T08:26:51.818Z,95.40
2022-11-29T08:29:19.191Z,95.30
2022-11-29T08:31:46.998Z,95.50
2022-11-29T08:34:14.406Z,95.70
2022-11-29T08:36:41.947Z,95.80
2022-11-29T08:39:09.853Z,95.90
2022-11-29T08:41:37.371Z,95.90
2022-11-29T08:44:05.505Z,95.90
2022-11-29T08:46:51.679Z,95.90
2022-11-29T08:49:19.085Z,95.90
2022-11-29T08:51:46.522Z,95.80
2022-11-29T08:54:13.922Z,95.80
2022-11-29T08:59:30.694Z,95.80
2022-11-29T09:01:58.089Z,95.70
2022-11-29T09:04:25.453Z,95.80
2022-11-29T09:06:53.092Z,95.80
2022-11-29T09:09:20.541Z,95.80
2022-11-29T09:11:49.581Z,95.80
2022-11-29T09:14:17.849Z,95.80
2022-11-29T09:16:45.365Z,95.80
2022-11-29T09:19:14.041Z,95.80
2022-11-29T09:21:41.567Z,95.80
2022-11-29T09:24:10.347Z,95.80
2022-11-29T09:26:38.248Z,95.80
2022-11-29T09:29:06.958Z,95.80
2022-11-29T09:31:35.060Z,95.70
2022-11-29T09:34:02.643Z,95.70
2022-11-29T09:36:30.813Z,95.80
2022-11-29T09:38:59.181Z,95.80
2022-11-29T09:41:48.494Z,95.70
2022-11-29T09:44:29.424Z,95.70
2022-11-29T09:47:00.591Z,95.70
2022-11-29T09:49:46.732Z,95.70
2022-11-29T09:52:20.460Z,95.60
2022-11-29T09:54:51.089Z,95.60
2022-11-29T09:57:19.358Z,95.60
2022-11-29T09:59:48.783Z,95.70
2022-11-29T10:02:22.331Z,95.70
2022-11-29T10:04:52.108Z,95.60
2022-11-29T10:07:37.786Z,95.60
2022-11-29T10:10:13.464Z,95.60
2022-11-29T10:12:46.665Z,95.60
2022-11-29T10:15:19.931Z,95.50
2022-11-29T10:17:50.371Z,95.50
2022-11-29T10:20:25.552Z,95.50
2022-11-29T10:22:56.215Z,95.50
2022-11-29T10:25:26.241Z,95.40
2022-11-29T10:27:54.439Z,95.50
2022-11-29T10:30:22.134Z,95.50
2022-11-29T10:32:52.019Z,95.50
2022-11-29T10:35:20.922Z,95.50
2022-11-29T10:38:22.284Z,95.40
2022-11-29T10:40:37.923Z,95.50
2022-11-29T10:43:05.383Z,95.50
2022-11-29T10:45:35.133Z,95.50
2022-11-29T10:48:04.690Z,95.60
2022-11-29T10:50:33.564Z,95.60
2022-11-29T10:53:04.663Z,95.60
2022-11-29T10:55:36.577Z,95.60
2022-11-29T10:58:12.425Z,95.50
2022-11-29T11:01:06.829Z,95.50
2022-11-29T11:03:39.992Z,95.50
2022-11-29T11:06:19.688Z,95.50
2022-11-29T11:08:52.633Z,95.40
2022-11-29T11:11:38.767Z,95.40
2022-11-29T11:14:18.122Z,95.40
2022-11-29T11:16:45.691Z,95.30
2022-11-29T11:19:25.212Z,95.30
2022-11-29T11:21:52.689Z,95.30
2022-11-29T11:24:30.454Z,95.30
2022-11-29T11:26:58.565Z,95.30
2022-11-29T11:29:28.303Z,95.30
2022-11-29T11:31:57.736Z,95.30
2022-11-29T11:34:26.626Z,95.20
2022-11-29T11:36:54.967Z,95.30
2022-11-29T11:39:23.137Z,95.20
2022-11-29T11:42:10.522Z,95.20
2022-11-29T11:44:48.432Z,95.10
2022-11-29T11:47:22.188Z,95.10
2022-11-29T11:50:19.341Z,95.10
2022-11-29T11:52:50.846Z,95.10
2022-11-29T11:55:21.177Z,95.10
2022-11-29T11:57:58.883Z,95.10
2022-11-29T12:01:02.399Z,95.00
2022-11-29T12:03:37.710Z,95.00
2022-11-29T12:06:08.389Z,95.00
2022-11-29T12:08:36.832Z,94.80
2022-11-29T12:11:07.559Z,94.80
2022-11-29T12:13:36.295Z,94.80
2022-11-29T12:16:18.410Z,94.80
2022-11-29T12:18:51.092Z,94.90
2022-11-29T12:21:23.465Z,94.90
2022-11-29T12:24:00.138Z,94.90
2022-11-29T12:26:56.481Z,94.90
2022-11-29T12:29:22.405Z,94.90
2022-11-29T12:31:49.837Z,94.90
2022-11-29T12:34:23.298Z,94.90
2022-11-29T12:37:09.535Z,94.80
2022-11-29T12:39:52.547Z,94.80
2022-11-29T12:42:40.393Z,94.70
2022-11-29T12:45:31.137Z,94.60
2022-11-29T12:48:10.269Z,94.60
2022-11-29T12:50:56.474Z,94.60
2022-11-29T12:53:27.688Z,94.60
2022-11-29T12:56:08.392Z,94.30
2022-11-29T12:58:44.209Z,94.30
2022-11-29T13:01:36.447Z,94.30
2022-11-29T13:04:20.458Z,94.30
2022-11-29T13:06:53.878Z,94.30
2022-11-29T13:09:24.490Z,94.30
2022-11-29T13:11:57.926Z,94.20
2022-11-29T13:14:45.134Z,94.20
2022-11-29T13:17:21.629Z,94.20
2022-11-29T13:19:52.215Z,94.30
2022-11-29T13:22:38.520Z,94.30
2022-11-29T13:25:17.557Z,94.30
2022-11-29T13:27:50.195Z,94.20
2022-11-29T13:30:17.743Z,94.20
2022-11-29T13:32:51.717Z,94.20
2022-11-29T13:35:21.562Z,94.20
2022-11-29T13:37:55.333Z,94.30
2022-11-29T13:40:32.280Z,94.30
2022-11-29T13:43:04.540Z,94.20
2022-11-29T13:45:37.661Z,94.20
2022-11-29T13:48:27.612Z,94.20
2022-11-29T13:50:56.779Z,94.10
2022-11-29T13:53:25.402Z,94.10
2022-11-29T13:56:00.862Z,94.10
2022-11-29T13:58:28.223Z,94.10
2022-11-29T14:01:07.664Z,94.20
2022-11-29T14:03:42.489Z,94.20
2022-11-29T14:06:31.865Z,94.20
2022-11-29T14:09:19.623Z,94.10
2022-11-29T14:11:49.618Z,93.90
2022-11-29T14:14:17.052Z,93.80
2022-11-29T14:16:44.433Z,93.80
2022-11-29T14:19:21.228Z,93.90
2022-11-29T14:22:07.105Z,93.90
2022-11-29T14:24:35.409Z,94.00
2022-11-29T14:27:05.822Z,94.00
2022-11-29T14:29:55.141Z,94.00
2022-11-29T14:32:22.829Z,94.00
2022-11-29T14:34:59.391Z,94.10
2022-11-29T14:37:33.980Z,94.10
2022-11-29T14:40:03.295Z,94.10
2022-11-29T14:42:31.245Z,94.10
2022-11-29T14:45:01.664Z,94.10
2022-11-29T14:47:32.753Z,94.10
2022-11-29T14:50:01.546Z,94.20
2022-11-29T14:52:33.702Z,94.10
2022-11-29T14:55:01.136Z,94.20
2022-11-29T14:57:47.015Z,94.20
2022-11-29T15:00:15.209Z,94.20
2022-11-29T15:02:46.004Z,94.20
2022-11-29T15:05:17.073Z,94.30
2022-11-29T15:07:47.320Z,94.40
2022-11-29T15:10:18.711Z,94.40
2022-11-29T15:12:47.188Z,94.40
2022-11-29T15:15:33.279Z,94.50
2022-11-29T15:18:06.597Z,94.50
2022-11-29T15:21:06.491Z,94.50
2022-11-29T15:23:57.090Z,94.50
2022-11-29T15:26:24.497Z,94.40
2022-11-29T15:28:51.817Z,94.50
2022-11-29T15:31:20.395Z,94.50
2022-11-29T15:33:49.195Z,94.60
2022-11-29T15:36:21.015Z,94.60
2022-11-29T15:38:55.894Z,94.60
2022-11-29T15:41:27.896Z,94.60
2022-11-29T15:43:59.654Z,94.70
2022-11-29T15:46:28.978Z,94.70
2022-11-29T15:49:14.947Z,94.60
2022-11-29T15:51:42.711Z,94.60
2022-11-29T15:54:36.566Z,94.70
2022-11-29T15:57:13.638Z,94.60
2022-11-29T15:59:43.769Z,94.70
2022-11-29T16:02:19.857Z,94.70
2022-11-29T16:04:49.301Z,94.70
2022-11-29T16:07:18.163Z,94.70
2022-11-29T16:09:48.149Z,94.70
2022-11-29T16:12:17.348Z,94.70
2022-11-29T16:14:48.578Z,94.60
2022-11-29T16:17:16.688Z,94.60
2022-11-29T16:19:44.867Z,94.60
2022-11-29T16:22:12.299Z,94.70
2022-11-29T16:24:45.626Z,94.70
2022-11-29T16:27:14.281Z,94.70
2022-11-29T16:29:45.040Z,94.70
2022-11-29T16:32:21.686Z,94.80
2022-11-29T16:34:49.420Z,94.80
2022-11-29T16:37:19.061Z,94.80
2022-11-29T16:39:48.518Z,94.80
2022-11-29T16:42:29.498Z,94.80
2022-11-29T16:45:02.916Z,94.80
2022-11-29T16:47:52.414Z,94.90
2022-11-29T16:50:23.022Z,94.80
2022-11-29T16:52:56.844Z,94.80
2022-11-29T16:55:24.563Z,94.80
2022-11-29T16:57:52.392Z,94.80
2022-11-29T17:00:23.287Z,94.80
2022-11-29T17:02:50.768Z,94.90
2022-11-29T17:05:18.148Z,94.90
2022-11-29T17:07:45.731Z,95.00
2022-11-29T17:10:15.104Z,95.00
2022-11-29T17:12:47.791Z,95.00
2022-11-29T17:15:16.019Z,95.00
2022-11-29T17:17:43.664Z,95.00
2022-11-29T17:20:12.442Z,95.00
2022-11-29T17:22:39.843Z,95.00
2022-11-29T17:25:07.483Z,95.00
2022-11-29T17:27:35.458Z,95.00
2022-11-29T17:30:03.549Z,95.00
2022-11-29T17:32:33.095Z,95.00
2022-11-29T17:35:00.458Z,95.00
2022-11-29T17:37:28.874Z,95.00
2022-11-29T17:39:56.736Z,95.00
2022-11-29T17:42:24.232Z,95.10
2022-11-29T17:44:51.605Z,95.00
2022-11-29T17:47:19.041Z,95.10
2022-11-29T17:49:46.615Z,95.10
2022-11-29T17:52:14.105Z,95.10
2022-11-29T17:54:41.556Z,95.10
2022-11-29T17:57:09.156Z,95.10
2022-11-29T17:59:36.628Z,95.10
2022-11-29T18:02:04.288Z,95.10
2022-11-29T18:04:31.673Z,95.10
2022-11-29T18:06:59.150Z,95.20
2022-11-29T18:09:26.493Z,95.20
2022-11-29T18:11:53.913Z,95.20
2022-11-29T18:14:28.318Z,95.20
2022-11-29T18:16:55.999Z,95.20
2022-11-29T18:19:23.623Z,95.10
2022-11-29T18:21:51.590Z,95.20
2022-11-29T18:24:19.157Z,95.20
2022-11-29T18:26:46.861Z,95.20
2022-11-29T18:29:14.781Z,95.20
2022-11-29T18:31:43.431Z,95.20
2022-11-29T18:34:11.759Z,95.20
2022-11-29T18:36:42.892Z,95.20
2022-11-29T18:39:14.239Z,95.30
2022-11-29T18:41:43.026Z,95.30
2022-11-29T18:44:11.867Z,95.30
2022-11-29T18:46:40.260Z,95.30
2022-11-29T18:49:08.210Z,95.30
2022-11-29T18:51:36.091Z,95.30
2022-11-29T18:54:03.691Z,95.40
2022-11-29T18:56:32.764Z,95.40
2022-11-29T18:59:05.247Z,95.40
2022-11-29T19:01:34.333Z,95.30
2022-11-29T19:04:02.028Z,95.40
2022-11-29T19:06:37.115Z,95.40
2022-11-29T19:09:07.514Z,95.30
2022-11-29T19:11:34.976Z,95.40
2022-11-29T19:14:11.151Z,95.40
2022-11-29T19:16:40.374Z,95.40
2022-11-29T19:19:07.887Z,95.40
2022-11-29T19:21:35.402Z,95.40
2022-11-29T19:24:04.211Z,95.40
2022-11-29T19:26:32.380Z,95.40
2022-11-29T19:29:00.553Z,95.40
2022-11-29T19:31:28.076Z,95.40
2022-11-29T19:33:55.980Z,95.40
2022-11-29T19:36:24.887Z,95.40
2022-11-29T19:38:54.045Z,95.50
2022-11-29T19:41:24.270Z,95.40
2022-11-29T19:43:51.861Z,95.40
2022-11-29T19:46:20.911Z,95.40
2022-11-29T19:48:48.687Z,95.40
2022-11-29T19:51:18.945Z,95.40
2022-11-29T19:53:46.959Z,95.40
2022-11-29T19:56:15.599Z,95.40
2022-11-29T19:58:43.179Z,95.40
2022-11-29T20:01:13.200Z,95.40
2022-11-29T20:03:41.166Z,95.40
2022-11-29T20:06:09.498Z,95.40
2022-11-29T20:08:37.452Z,95.40
2022-11-29T20:11:23.973Z,95.40
2022-11-29T20:13:56.544Z,95.40
2022-11-29T20:16:25.044Z,95.40
2022-11-29T20:18:53.260Z,95.50
2022-11-29T20:21:22.310Z,95.50
2022-11-29T20:23:49.697Z,95.40
2022-11-29T20:26:19.313Z,95.40
2022-11-29T20:28:47.297Z,95.50
2022-11-29T20:31:16.058Z,95.50
2022-11-29T20:33:44.554Z,95.50
2022-11-29T20:36:15.053Z,95.50
2022-11-29T20:38:59.941Z,95.50
2022-11-29T20:41:32.561Z,95.50
2022-11-29T20:44:01.671Z,95.50
2022-11-29T20:46:30.039Z,95.50
2022-11-29T20:49:01.680Z,95.50
2022-11-29T20:51:58.785Z,95.50
2022-11-29T20:54:26.230Z,95.50
2022-11-29T20:56:53.798Z,95.50
2022-11-29T20:59:21.163Z,95.50
2022-11-29T21:01:48.604Z,95.50
2022-11-29T21:04:21.628Z,95.50
2022-11-29T21:06:50.637Z,95.50
2022-11-29T21:09:18.035Z,95.50
2022-11-29T21:11:45.476Z,95.50
2022-11-29T21:14:13.105Z,95.50
2022-11-29T21:16:40.620Z,95.50
2022-11-29T21:19:12.489Z,95.50
2022-11-29T21:21:44.652Z,95.50
2022-11-29T21:24:30.923Z,95.50
2022-11-29T21:26:58.524Z,95.50
2022-11-29T21:29:26.022Z,95.50
2022-11-29T21:31:54.199Z,95.50
2022-11-29T21:34:21.671Z,95.50
2022-11-29T21:36:53.281Z,95.50
2022-11-29T21:39:22.710Z,95.50
2022-11-29T21:41:50.117Z,95.50
2022-11-29T21:44:17.489Z,95.50
2022-11-29T21:46:44.877Z,95.50
2022-11-29T21:49:12.240Z,95.50
2022-11-29T21:51:39.679Z,95.50
2022-11-29T21:54:07.060Z,95.50
2022-11-29T21:56:34.642Z,95.50
2022-11-29T21:59:02.071Z,95.50
2022-11-29T22:01:29.596Z,95.50
2022-11-29T22:03:57.111Z,95.50
2022-11-29T22:06:26.124Z,95.50
2022-11-29T22:08:53.552Z,95.60
2022-11-29T22:11:30.850Z,95.60
2022-11-29T22:14:15.108Z,95.60
2022-11-29T22:16:50.018Z,95.60
2022-11-29T22:19:27.944Z,95.60
2022-11-29T22:21:57.245Z,95.60
2022-11-29T22:24:26.237Z,95.60
2022-11-29T22:26:54.536Z,95.60
2022-11-29T22:29:22.130Z,95.60
2022-11-29T22:31:51.179Z,95.60
2022-11-29T22:34:18.975Z,95.60
2022-11-29T22:36:46.380Z,95.60
2022-11-29T22:39:14.258Z,95.60
2022-11-29T22:41:41.849Z,95.60
2022-11-29T22:44:09.248Z,95.60
2022-11-29T22:46:39.158Z,95.60
2022-11-29T22:49:06.828Z,95.60
2022-11-29T22:51:35.234Z,95.60
2022-11-29T22:54:04.051Z,95.60
2022-11-29T22:56:32.276Z,95.60
2022-11-29T22:58:59.642Z,95.60
2022-11-29T23:01:28.357Z,95.60
2022-11-29T23:03:56.930Z,95.60
2022-11-29T23:06:25.739Z,95.60
2022-11-29T23:08:54.391Z,95.60
2022-11-29T23:11:22.951Z,95.60
2022-11-29T23:13:50.571Z,95.60
2022-11-29T23:16:19.704Z,95.60
2022-11-29T23:18:47.387Z,95.60
2022-11-29T23:21:16.426Z,95.60
2022-11-29T23:23:44.141Z,95.60
2022-11-29T23:26:20.906Z,95.60
2022-11-29T23:28:49.204Z,95.60
2022-11-29T23:31:17.258Z,95.60
2022-11-29T23:33:44.732Z,95.60
2022-11-29T23:36:12.675Z,95.60
2022-11-29T23:38:40.032Z,95.60
2022-11-29T23:41:07.707Z,95.50
2022-11-29T23:43:36.201Z,95.60
2022-11-29T23:46:07.892Z,95.50
2022-11-29T23:48:35.424Z,95.50
2022-11-29T23:51:02.863Z,95.50
2022-11-29T23:53:30.528Z,95.50
2022-11-29T23:56:02.205Z,95.50
2022-11-29T23:58:30.413Z,95.50
